KAPN/APN METAR and TAF weather

Enter ICAO airport designator
Station Type Date Time Source
KAPN METAR 2022/05/24 10:54 UTC NOAA

KAPN 241054Z AUTO 00000KT 10SM CLR 01/01 A3033 RMK AO2 SLP275 T00110006


Station Type Date Time Source
KAPN Decoded METAR 2022/05/24 10:54 UTC NOAA

ALPENA COUNTY REGIONAL AIRPORT, MI, United States (KAPN) 45-05N 083-34W 210M
May 24, 2022 - 06:54 AM EDT / 2022.05.24 1054 UTC
Wind: Calm:0
Visibility: 10 mile(s):0
Sky conditions: clear
Temperature: 34.0 F (1.1 C)
Dew Point: 33.1 F (0.6 C)
Relative Humidity: 96%
Pressure (altimeter): 30.33 in. Hg (1027 hPa)
ob: KAPN 241054Z AUTO 00000KT 10SM CLR 01/01 A3033 RMK AO2 SLP275 T00110006
cycle: 11

Station Type Date Time Source
KAPN TAF 2022/05/24 11:52 UTC NOAA

TAF
AMD KAPN 241050Z 2411/2506 00000KT P6SM SCT250
FM241600 09006KT P6SM FEW050 SCT250
FM250200 VRB03KT P6SM SCT180

Example: see airport list